Time;durP1;ratioP1;P1;durP2;ratioP2;P2;SDS_P1;SDS_P2;PMS_P1;PMS_P2;Temp;Humidity;BMP_temperature;BMP_pressure;BME280_temperature;BME280_humidity;BME280_pressure;Samples;Min_cycle;Max_cycle;Signal;HPM_P1;HPM_P2
2021/12/04 00:02:02;;;;;;;1.73;1.63;;;5.00;67.50;;;;;;5073065;28;20211;-86
2021/12/04 00:04:32;;;;;;;2.13;1.93;;;4.90;67.90;;;;;;5081871;28;20219;-86
2021/12/04 00:06:58;;;;;;;2.40;2.20;;;4.90;68.40;;;;;;5085086;28;20203;-86
2021/12/04 00:09:24;;;;;;;1.87;1.67;;;4.90;66.70;;;;;;5066835;28;20283;-85
2021/12/04 00:11:54;;;;;;;1.70;1.60;;;4.90;67.50;;;;;;5052572;28;20223;-86
2021/12/04 00:14:20;;;;;;;1.97;1.77;;;4.70;67.00;;;;;;5069727;28;20183;-85
2021/12/04 00:16:49;;;;;;;1.70;1.60;;;4.80;66.00;;;;;;5090426;28;20204;-86
2021/12/04 00:19:15;;;;;;;2.20;2.00;;;4.70;67.30;;;;;;5072220;28;20191;-86
2021/12/04 00:21:41;;;;;;;1.73;1.63;;;4.80;65.90;;;;;;5084864;28;20735;-86
2021/12/04 00:24:08;;;;;;;4.37;2.53;;;4.70;66.00;;;;;;5056909;28;20190;-86
2021/12/04 00:26:34;;;;;;;1.93;1.80;;;4.70;65.70;;;;;;5086294;28;20191;-87
2021/12/04 00:29:00;;;;;;;2.00;1.90;;;4.60;66.90;;;;;;5084391;28;20221;-86
2021/12/04 00:31:27;;;;;;;2.90;1.90;;;4.70;67.10;;;;;;5084988;28;20246;-86
2021/12/04 00:33:53;;;;;;;2.40;1.60;;;4.70;68.70;;;;;;5071710;28;20218;-85
2021/12/04 00:50:02;;;;;;;2.47;2.00;;;4.40;80.70;;;;;;5074761;28;20193;-87
2021/12/04 00:52:28;;;;;;;1.60;1.40;;;4.30;83.90;;;;;;5070793;28;20218;-87
2021/12/04 00:54:54;;;;;;;2.37;1.50;;;4.30;86.40;;;;;;5068197;28;20199;-86
2021/12/04 00:57:20;;;;;;;1.60;1.50;;;4.30;89.50;;;;;;5065559;28;20183;-86
2021/12/04 00:59:46;;;;;;;1.53;1.43;;;4.30;91.90;;;;;;5065828;28;20528;-86
2021/12/04 01:02:12;;;;;;;2.70;1.80;;;4.20;95.30;;;;;;5086234;28;20192;-86
2021/12/04 01:04:37;;;;;;;1.67;1.47;;;4.20;97.00;;;;;;5068876;28;20178;-86
2021/12/04 01:07:04;;;;;;;1.50;1.40;;;4.10;98.30;;;;;;5064802;28;20199;-85
2021/12/04 01:09:30;;;;;;;1.60;1.50;;;4.10;99.60;;;;;;5066266;28;20199;-86
2021/12/04 01:11:56;;;;;;;2.63;1.53;;;4.00;99.90;;;;;;5086662;28;20694;-85
2021/12/04 01:14:26;;;;;;;2.03;1.50;;;4.10;99.90;;;;;;5069394;28;20195;-86
2021/12/04 01:16:53;;;;;;;1.70;1.60;;;4.20;99.90;;;;;;5052828;28;20219;-86
2021/12/04 01:19:20;;;;;;;2.43;1.90;;;4.20;99.90;;;;;;5069219;28;20253;-86
2021/12/04 01:21:48;;;;;;;1.60;1.50;;;4.20;99.80;;;;;;5087863;28;20689;-86
2021/12/04 01:24:14;;;;;;;2.20;1.70;;;4.10;99.90;;;;;;5088290;28;20195;-87
2021/12/04 01:26:40;;;;;;;2.10;1.70;;;4.00;99.90;;;;;;5068534;28;20211;-85
2021/12/04 01:29:06;;;;;;;1.80;1.70;;;4.00;99.90;;;;;;5083759;28;20175;-86
2021/12/04 01:31:32;;;;;;;1.90;1.80;;;4.00;99.90;;;;;;5048663;28;20218;-85
2021/12/04 01:33:58;;;;;;;3.57;1.60;;;3.90;99.90;;;;;;5054726;28;20199;-87
2021/12/04 01:36:24;;;;;;;2.03;1.87;;;4.00;99.90;;;;;;5083057;28;20566;-87
2021/12/04 01:38:51;;;;;;;2.57;1.80;;;4.00;99.90;;;;;;5081506;28;20191;-87
2021/12/04 01:41:17;;;;;;;2.17;1.90;;;4.00;99.90;;;;;;5048783;28;20682;-87
2021/12/04 01:43:43;;;;;;;2.47;1.67;;;3.90;99.90;;;;;;5085085;28;20203;-87
2021/12/04 01:46:12;;;;;;;2.60;1.70;;;3.80;99.90;;;;;;5082801;28;20642;-87
2021/12/04 01:48:38;;;;;;;1.80;1.70;;;3.90;99.90;;;;;;5087447;28;20184;-87
2021/12/04 01:51:07;;;;;;;2.37;2.00;;;4.10;99.90;;;;;;5088655;28;20219;-87
2021/12/04 01:53:33;;;;;;;1.93;1.73;;;4.20;99.90;;;;;;5085936;28;20222;-87
2021/12/04 01:56:00;;;;;;;2.43;1.63;;;4.30;99.90;;;;;;5073014;28;20176;-87
2021/12/04 01:58:27;;;;;;;1.70;1.60;;;4.30;99.90;;;;;;5070911;28;20191;-87
2021/12/04 02:00:53;;;;;;;1.77;1.67;;;4.40;99.90;;;;;;5065375;28;20219;-87
2021/12/04 02:03:19;;;;;;;1.87;1.70;;;4.50;99.90;;;;;;5086361;28;20192;-87
2021/12/04 02:05:47;;;;;;;1.77;1.67;;;4.50;99.90;;;;;;5048693;28;20191;-88
2021/12/04 02:08:20;;;;;;;2.27;1.70;;;4.60;99.90;;;;;;5066578;28;20202;-88
2021/12/04 02:10:48;;;;;;;2.03;1.80;;;4.60;99.90;;;;;;5069013;28;20218;-87
2021/12/04 02:13:15;;;;;;;2.87;1.90;;;4.60;99.90;;;;;;5066629;28;20274;-87
2021/12/04 02:15:43;;;;;;;3.40;2.07;;;4.60;99.90;;;;;;5081480;28;20199;-87
2021/12/04 02:18:08;;;;;;;1.93;1.77;;;4.60;99.90;;;;;;5054963;28;20184;-88
2021/12/04 02:20:35;;;;;;;1.70;1.60;;;4.50;99.90;;;;;;5087753;28;20697;-88
2021/12/04 02:23:07;;;;;;;2.50;1.87;;;4.50;99.90;;;;;;5083499;28;20259;-87
2021/12/04 02:25:33;;;;;;;3.83;1.97;;;4.60;99.90;;;;;;5082852;28;20195;-88
2021/12/04 02:28:01;;;;;;;4.80;2.10;;;4.60;99.90;;;;;;5048728;28;20199;-88
2021/12/04 02:30:29;;;;;;;2.87;2.10;;;4.60;99.90;;;;;;5064706;28;20279;-88
2021/12/04 02:32:56;;;;;;;1.97;1.70;;;4.60;99.90;;;;;;5065481;28;20191;-87
2021/12/04 02:35:25;;;;;;;1.90;1.80;;;4.70;99.90;;;;;;5082070;28;20251;-87
2021/12/04 02:37:51;;;;;;;2.23;1.90;;;4.70;99.90;;;;;;5066436;28;20183;-87
2021/12/04 02:40:22;;;;;;;2.30;1.90;;;4.70;99.90;;;;;;5044376;28;20200;-86
2021/12/04 02:42:50;;;;;;;1.83;1.70;;;4.70;99.90;;;;;;5081037;28;20187;-88
2021/12/04 02:45:16;;;;;;;1.93;1.73;;;4.70;99.90;;;;;;5084865;28;20743;-87
2021/12/04 02:47:42;;;;;;;2.10;1.90;;;4.70;99.90;;;;;;5089623;28;20195;-87
2021/12/04 02:50:11;;;;;;;2.83;2.00;;;4.60;99.90;;;;;;5079942;28;20270;-87
2021/12/04 02:52:38;;;;;;;2.20;1.90;;;4.60;99.90;;;;;;5093435;28;20214;-87
2021/12/04 02:55:05;;;;;;;4.00;2.30;;;4.70;99.90;;;;;;5089629;28;20214;-87
2021/12/04 02:57:33;;;;;;;2.33;1.87;;;4.70;99.90;;;;;;5087866;28;20180;-87
2021/12/04 02:59:59;;;;;;;2.60;1.90;;;4.70;99.90;;;;;;5063608;28;20191;-87
2021/12/04 03:02:25;;;;;;;2.03;1.90;;;4.80;99.90;;;;;;5085141;28;20251;-88
2021/12/04 03:05:00;;;;;;;3.80;2.13;;;4.70;99.90;;;;;;5095385;28;20209;-88
2021/12/04 03:07:26;;;;;;;3.07;2.30;;;4.80;99.90;;;;;;5082978;28;20192;-87
2021/12/04 03:09:54;;;;;;;2.37;2.00;;;4.80;99.90;;;;;;5081041;28;20196;-87
2021/12/04 03:12:24;;;;;;;2.30;2.10;;;4.80;99.90;;;;;;5063569;28;20615;-88
2021/12/04 03:14:51;;;;;;;3.13;2.30;;;4.70;99.90;;;;;;5081261;28;20194;-87
2021/12/04 03:17:21;;;;;;;2.10;2.00;;;4.70;99.90;;;;;;5063548;28;20217;-87
2021/12/04 03:19:49;;;;;;;2.80;1.90;;;4.60;99.90;;;;;;5047098;28;20203;-87
2021/12/04 03:22:17;;;;;;;2.60;2.40;;;4.60;99.90;;;;;;5067067;28;20213;-87
2021/12/04 03:24:43;;;;;;;2.63;2.10;;;4.60;99.90;;;;;;5081738;28;20183;-87
2021/12/04 03:27:09;;;;;;;2.30;2.10;;;4.60;99.90;;;;;;5047907;28;20184;-87
2021/12/04 03:29:41;;;;;;;2.80;2.33;;;4.60;99.90;;;;;;5079893;28;20204;-87
2021/12/04 03:42:40;;;;;;;2.40;2.20;;;4.60;99.90;;;;;;5074152;28;20179;-86
2021/12/04 03:45:09;;;;;;;2.67;2.33;;;4.50;99.90;;;;;;5083130;28;20180;-87
2021/12/04 03:47:38;;;;;;;2.70;2.50;;;4.40;99.90;;;;;;5064848;28;20204;-86
2021/12/04 03:50:04;;;;;;;2.73;2.53;;;4.50;99.90;;;;;;5081907;28;20198;-87
2021/12/04 03:52:30;;;;;;;3.03;2.73;;;4.60;99.90;;;;;;5067051;28;20195;-87
2021/12/04 03:54:56;;;;;;;4.60;2.40;;;4.60;99.90;;;;;;5063790;28;20222;-87
2021/12/04 03:57:22;;;;;;;3.27;2.97;;;4.50;99.90;;;;;;5068460;28;20247;-86
2021/12/04 03:59:48;;;;;;;3.30;3.00;;;4.40;99.90;;;;;;5080618;28;20194;-87
2021/12/04 04:02:17;;;;;;;4.03;3.10;;;4.40;99.90;;;;;;5080871;28;20339;-87
2021/12/04 04:04:43;;;;;;;3.90;3.27;;;4.50;99.90;;;;;;5081810;28;20195;-87
2021/12/04 04:07:09;;;;;;;4.37;3.23;;;4.40;99.90;;;;;;5082589;28;20203;-87
2021/12/04 04:09:36;;;;;;;3.57;3.23;;;4.20;99.90;;;;;;5087822;28;20175;-87
2021/12/04 04:12:02;;;;;;;5.37;3.10;;;4.30;99.90;;;;;;5081202;28;20297;-87
2021/12/04 04:14:29;;;;;;;3.33;3.03;;;4.30;99.90;;;;;;5061043;28;20210;-87
2021/12/04 04:16:56;;;;;;;3.93;3.53;;;4.30;99.90;;;;;;5082205;28;20249;-87
2021/12/04 04:19:23;;;;;;;3.57;3.23;;;4.20;99.90;;;;;;5062501;28;20203;-87
2021/12/04 04:21:53;;;;;;;4.90;3.20;;;4.30;99.90;;;;;;5083181;28;20218;-87
2021/12/04 04:24:19;;;;;;;4.90;3.50;;;4.30;99.90;;;;;;5076566;28;20711;-86
2021/12/04 04:26:45;;;;;;;4.30;3.70;;;4.20;99.90;;;;;;5047166;28;20200;-87
2021/12/04 04:29:13;;;;;;;3.83;3.50;;;4.30;99.90;;;;;;5082982;28;20196;-86
2021/12/04 04:31:47;;;;;;;5.03;3.73;;;4.30;99.90;;;;;;5079089;28;20208;-86
2021/12/04 04:34:25;;;;;;;4.10;3.70;;;4.30;99.90;;;;;;5089428;28;20190;-87
2021/12/04 05:14:27;;;;;;;4.33;3.90;;;4.30;99.90;;;;;;5081858;28;20572;-87
2021/12/04 05:16:59;;;;;;;5.47;4.07;;;4.20;99.90;;;;;;5065136;28;20235;-87
2021/12/04 05:19:28;;;;;;;4.17;3.77;;;4.20;99.90;;;;;;5064654;28;20230;-87
2021/12/04 05:21:54;;;;;;;4.30;3.73;;;4.20;99.90;;;;;;5080018;28;20235;-87
2021/12/04 05:24:21;;;;;;;4.03;3.70;;;4.20;99.90;;;;;;5066811;28;20199;-87
2021/12/04 05:26:48;;;;;;;4.20;3.70;;;4.20;99.90;;;;;;5083375;28;20183;-88
2021/12/04 05:29:14;;;;;;;4.27;3.87;;;4.20;99.90;;;;;;5098311;28;20196;-87
2021/12/04 05:31:39;;;;;;;4.00;3.70;;;4.20;99.90;;;;;;5090487;28;20214;-87
2021/12/04 05:34:05;;;;;;;4.30;3.90;;;4.30;99.90;;;;;;5083804;28;20200;-87
2021/12/04 05:36:31;;;;;;;4.20;3.90;;;4.30;99.90;;;;;;5087058;28;20268;-87
2021/12/04 05:38:57;;;;;;;4.87;4.23;;;4.30;99.90;;;;;;5081899;28;20183;-87
2021/12/04 05:41:24;;;;;;;4.07;3.67;;;4.40;99.90;;;;;;5084832;28;20759;-87
2021/12/04 05:43:50;;;;;;;4.40;4.00;;;4.40;99.90;;;;;;5086024;28;20191;-87
2021/12/04 05:46:22;;;;;;;4.40;4.00;;;4.40;99.90;;;;;;5076825;28;20188;-87
2021/12/04 05:49:01;;;;;;;4.60;4.20;;;4.40;99.90;;;;;;5088993;28;20179;-87
2021/12/04 05:51:37;;;;;;;3.60;3.30;;;4.30;99.90;;;;;;5085390;28;20206;-87
2021/12/04 05:54:29;;;;;;;4.53;4.13;;;4.20;99.90;;;;;;5088433;28;20184;-87
2021/12/04 05:56:52;;;;;;;4.53;4.13;;;4.20;99.90;;;;;;5083703;28;20219;-87
2021/12/04 05:59:18;;;;;;;5.27;4.37;;;4.20;99.90;;;;;;5050283;28;20180;-87
2021/12/04 06:01:44;;;;;;;4.50;4.10;;;4.20;99.90;;;;;;5079760;28;20402;-87
2021/12/04 06:04:10;;;;;;;4.90;4.40;;;4.30;99.90;;;;;;5058939;28;20187;-87
2021/12/04 06:06:35;;;;;;;4.30;3.90;;;4.30;99.90;;;;;;5076743;28;20195;-87
2021/12/04 06:09:02;;;;;;;5.00;4.50;;;4.30;99.90;;;;;;5089692;28;20198;-87
2021/12/04 06:11:29;;;;;;;5.37;4.87;;;4.30;99.90;;;;;;5087979;28;20215;-87
2021/12/04 06:13:56;;;;;;;4.77;4.37;;;4.20;99.90;;;;;;5091305;28;20180;-87
2021/12/04 06:16:22;;;;;;;5.57;4.53;;;4.30;99.90;;;;;;5084545;28;20282;-87
2021/12/04 06:18:51;;;;;;;5.10;4.70;;;4.30;99.90;;;;;;5083617;28;20184;-86
2021/12/04 06:24:04;;;;;;;10.33;8.93;;;4.30;99.90;;;;;;5077562;28;20230;-87
2021/12/04 06:26:33;;;;;;;7.97;6.43;;;4.20;99.90;;;;;;5061056;28;20188;-87
2021/12/04 06:28:59;;;;;;;6.17;5.57;;;4.00;99.90;;;;;;5058189;28;20192;-87
2021/12/04 06:31:26;;;;;;;7.17;5.87;;;3.90;99.90;;;;;;5061492;28;20223;-87
2021/12/04 06:33:52;;;;;;;6.43;5.83;;;4.00;99.90;;;;;;5063502;28;20179;-87
2021/12/04 06:36:18;;;;;;;8.43;7.73;;;4.10;99.90;;;;;;5080962;28;20211;-87
2021/12/04 06:38:44;;;;;;;5.93;4.70;;;4.10;99.90;;;;;;5064498;28;20195;-87
2021/12/04 06:41:10;;;;;;;5.53;5.03;;;4.20;99.90;;;;;;5089267;28;20222;-87
2021/12/04 06:43:40;;;;;;;5.67;5.17;;;4.20;99.90;;;;;;5089077;28;20239;-87
2021/12/04 06:46:08;;;;;;;5.93;5.43;;;4.30;99.90;;;;;;5071398;28;20283;-87
2021/12/04 06:48:56;;;;;;;4.63;4.20;;;4.30;99.90;;;;;;5083830;28;20198;-87
2021/12/04 06:51:31;;;;;;;5.87;4.80;;;4.20;99.90;;;;;;5065535;28;20237;-87
2021/12/04 06:56:33;;;;;;;7.67;6.97;;;4.20;99.90;;;;;;5064617;28;20208;-87
2021/12/04 06:59:02;;;;;;;7.77;7.17;;;4.30;99.90;;;;;;5052626;28;20173;-87
2021/12/04 07:01:28;;;;;;;6.17;5.57;;;4.30;99.90;;;;;;5082120;28;20332;-88
2021/12/04 07:03:54;;;;;;;5.37;4.87;;;4.20;99.90;;;;;;5084634;28;20653;-87
2021/12/04 07:06:19;;;;;;;5.37;4.87;;;4.20;99.90;;;;;;5081415;28;20188;-86
2021/12/04 07:08:45;;;;;;;5.50;5.00;;;4.30;99.90;;;;;;5068417;28;20188;-87
2021/12/04 07:11:11;;;;;;;5.20;4.70;;;4.30;99.90;;;;;;5081288;28;20226;-87
2021/12/04 07:13:37;;;;;;;5.10;4.60;;;4.30;99.90;;;;;;5083146;28;20215;-87
2021/12/04 07:16:05;;;;;;;4.53;4.23;;;4.30;99.90;;;;;;5062706;28;20226;-87
2021/12/04 07:18:38;;;;;;;5.50;5.00;;;4.20;99.90;;;;;;5066798;28;20186;-88
2021/12/04 07:21:05;;;;;;;5.60;5.10;;;4.30;99.90;;;;;;5062885;28;20778;-86
2021/12/04 07:23:31;;;;;;;5.50;5.00;;;4.30;99.90;;;;;;5065247;28;20667;-88
2021/12/04 07:25:58;;;;;;;6.20;5.70;;;4.40;99.90;;;;;;5081674;28;20192;-87
2021/12/04 07:28:28;;;;;;;5.97;5.47;;;4.40;99.90;;;;;;5070047;28;20214;-89
2021/12/04 07:30:54;;;;;;;4.83;4.43;;;4.30;99.90;;;;;;5084942;28;20238;-90
2021/12/04 07:33:20;;;;;;;5.60;5.10;;;4.40;99.90;;;;;;5063092;28;20188;-90
2021/12/04 07:35:46;;;;;;;5.87;5.37;;;4.50;99.90;;;;;;5068202;28;20211;-89
2021/12/04 07:38:14;;;;;;;5.70;5.20;;;4.50;99.90;;;;;;5069799;28;20207;-89
2021/12/04 07:40:41;;;;;;;4.90;4.50;;;4.40;99.90;;;;;;5081104;28;20245;-88
2021/12/04 07:43:07;;;;;;;6.30;5.70;;;4.50;99.90;;;;;;5062375;28;20183;-88
2021/12/04 07:45:33;;;;;;;6.10;5.50;;;4.50;99.90;;;;;;5081611;28;20199;-88
2021/12/04 07:48:00;;;;;;;5.73;5.23;;;4.40;99.90;;;;;;5063757;28;20269;-90
2021/12/04 07:50:26;;;;;;;5.67;5.23;;;4.20;99.90;;;;;;5082005;28;20223;-88
2021/12/04 07:52:52;;;;;;;6.93;6.27;;;4.40;99.90;;;;;;5066378;28;20200;-89
2021/12/04 07:55:18;;;;;;;6.00;5.50;;;4.50;99.90;;;;;;5054412;28;20200;-89
2021/12/04 07:57:44;;;;;;;9.07;8.20;;;4.50;99.90;;;;;;5081098;28;20927;-88
2021/12/04 08:00:14;;;;;;;9.70;8.80;;;4.60;99.90;;;;;;5077776;28;20274;-89
2021/12/04 08:02:41;;;;;;;19.20;17.40;;;4.60;99.90;;;;;;5067816;28;20232;-89
2021/12/04 08:05:19;;;;;;;10.47;9.57;;;4.60;99.90;;;;;;5073490;28;20225;-88
2021/12/04 08:07:57;;;;;;;7.77;7.00;;;4.60;99.90;;;;;;5063574;28;20187;-90
2021/12/04 08:10:23;;;;;;;6.37;5.87;;;4.50;99.90;;;;;;5063963;28;20234;-91
2021/12/04 08:13:09;;;;;;;6.40;5.67;;;4.40;99.90;;;;;;5067124;28;20193;-88
2021/12/04 08:15:47;;;;;;;6.80;6.20;;;4.40;99.90;;;;;;5067718;28;20211;-89
2021/12/04 08:18:23;;;;;;;6.53;5.90;;;4.50;99.90;;;;;;5059134;28;20200;-89
2021/12/04 08:20:49;;;;;;;6.23;5.73;;;4.60;99.90;;;;;;5064570;28;20226;-88
2021/12/04 08:23:17;;;;;;;6.37;5.77;;;4.70;99.90;;;;;;5076450;28;20180;-88
2021/12/04 08:25:56;;;;;;;5.60;5.10;;;4.60;99.90;;;;;;5060376;28;20290;-88
2021/12/04 08:28:40;;;;;;;6.70;5.90;;;4.50;99.90;;;;;;5068675;28;20205;-89
2021/12/04 08:31:09;;;;;;;6.50;6.00;;;4.60;99.90;;;;;;5069923;28;20225;-90
2021/12/04 08:33:35;;;;;;;6.30;5.80;;;4.70;99.90;;;;;;5073988;28;20239;-89
2021/12/04 08:36:03;;;;;;;6.03;5.53;;;4.80;99.90;;;;;;5073450;28;20242;-87
2021/12/04 08:38:31;;;;;;;7.70;6.90;;;4.80;99.90;;;;;;5072560;28;20237;-89
2021/12/04 08:40:57;;;;;;;6.37;5.83;;;4.70;99.90;;;;;;5073931;28;20192;-88
2021/12/04 08:43:29;;;;;;;6.60;6.00;;;4.80;99.90;;;;;;5073850;28;20690;-89
2021/12/04 08:45:59;;;;;;;6.80;6.10;;;4.90;99.90;;;;;;5067974;28;20197;-91
2021/12/04 08:48:31;;;;;;;7.63;6.93;;;4.80;99.90;;;;;;5073592;28;20204;-90
2021/12/04 08:50:59;;;;;;;6.07;5.57;;;4.80;99.90;;;;;;5064646;28;20211;-88
2021/12/04 08:53:28;;;;;;;6.43;5.90;;;4.90;99.90;;;;;;5087446;28;20197;-89
2021/12/04 08:55:56;;;;;;;8.13;7.53;;;5.00;99.90;;;;;;5092641;28;20227;-89
2021/12/04 08:58:22;;;;;;;6.03;5.53;;;5.00;99.90;;;;;;5066992;28;20192;-89
2021/12/04 09:01:12;;;;;;;5.90;5.40;;;5.00;99.90;;;;;;5071667;28;20671;-88
2021/12/04 09:03:46;;;;;;;12.23;11.03;;;5.00;99.90;;;;;;5089191;28;20215;-87
2021/12/04 09:06:14;;;;;;;15.73;12.87;;;5.00;99.90;;;;;;5068504;28;20187;-88
2021/12/04 09:08:44;;;;;;;14.43;12.93;;;5.00;99.90;;;;;;5067876;28;20230;-88
2021/12/04 09:11:18;;;;;;;9.33;7.40;;;4.90;99.90;;;;;;5089978;28;20206;-89
2021/12/04 09:13:51;;;;;;;5.93;5.43;;;4.90;99.90;;;;;;5078172;28;20196;-88
2021/12/04 09:16:21;;;;;;;6.00;5.40;;;5.00;99.90;;;;;;5090975;28;20265;-88
2021/12/04 09:18:50;;;;;;;6.50;5.80;;;5.10;99.90;;;;;;5070257;28;20188;-89
2021/12/04 09:21:19;;;;;;;5.43;4.90;;;5.00;99.90;;;;;;5053612;28;20248;-89
2021/12/04 09:23:52;;;;;;;5.50;5.10;;;5.10;99.90;;;;;;5061312;28;20204;-89
2021/12/04 09:26:36;;;;;;;6.00;5.50;;;5.20;99.90;;;;;;5089721;28;20198;-89
2021/12/04 09:29:41;;;;;;;5.40;4.90;;;5.20;99.90;;;;;;5055422;28;20196;-92
2021/12/04 09:35:43;;;;;;;5.90;5.40;;;5.30;99.90;;;;;;5045143;28;20278;-89
2021/12/04 10:01:10;;;;;;;4.47;4.07;;;5.40;99.90;;;;;;5081083;28;20234;-89
2021/12/04 10:11:06;;;;;;;4.23;3.87;;;5.60;99.90;;;;;;5068185;28;20202;-89
2021/12/04 10:12:57;;;;;;;3.93;3.63;;;5.70;99.90;;;;;;5086600;28;20227;-90
2021/12/04 10:32:43;;;;;;;3.40;3.10;;;5.80;99.90;;;;;;5087618;28;20198;-90
2021/12/04 10:35:21;;;;;;;3.63;3.10;;;5.90;99.90;;;;;;5078521;28;20195;-90
2021/12/04 10:38:06;;;;;;;3.57;3.27;;;5.80;99.90;;;;;;5064622;28;20191;-90
2021/12/04 10:40:40;;;;;;;3.53;3.23;;;6.00;99.90;;;;;;5068765;28;20225;-90
2021/12/04 10:43:14;;;;;;;3.27;3.07;;;6.10;99.90;;;;;;5067304;28;20207;-90
2021/12/04 10:46:14;;;;;;;3.40;3.10;;;6.20;99.90;;;;;;5069683;28;20245;-91
2021/12/04 10:49:06;;;;;;;3.03;2.83;;;6.30;99.90;;;;;;5067569;28;20207;-90
2021/12/04 10:52:03;;;;;;;3.20;2.90;;;6.40;99.90;;;;;;5067476;28;20199;-89
2021/12/04 10:54:38;;;;;;;2.90;2.63;;;6.40;99.90;;;;;;5083312;28;20191;-89
2021/12/04 10:57:35;;;;;;;2.80;2.60;;;6.40;99.90;;;;;;5072536;28;20275;-90
2021/12/04 11:01:01;;;;;;;3.93;2.80;;;6.50;99.90;;;;;;5078942;28;20187;-91
2021/12/04 11:19:11;;;;;;;3.90;3.50;;;6.70;99.90;;;;;;5045687;28;20202;-89
2021/12/04 11:43:22;;;;;;;2.70;2.50;;;7.00;99.90;;;;;;5072648;28;20221;-91
2021/12/04 11:48:42;;;;;;;1.60;1.50;;;8.20;99.90;;;;;;5073702;28;20225;-90
2021/12/04 11:51:17;;;;;;;3.53;1.70;;;8.50;99.90;;;;;;5053236;28;20213;-90
2021/12/04 11:53:47;;;;;;;1.77;1.60;;;8.70;99.90;;;;;;5085717;28;20212;-89
2021/12/04 12:03:35;;;;;;;1.60;1.50;;;9.00;99.90;;;;;;4988993;28;20194;-89
2021/12/04 12:50:46;;;;;;;1.83;1.47;;;9.50;99.90;;;;;;5034595;28;20236;-90
2021/12/04 12:53:20;;;;;;;1.17;1.17;;;9.40;99.90;;;;;;5042419;28;20227;-89
2021/12/04 13:14:54;;;;;;;2.47;1.60;;;9.40;99.90;;;;;;5008497;28;20244;-90
2021/12/04 13:35:45;;;;;;;;;;;;;;;;;;;;;
2021/12/04 14:09:58;;;;;;;;;;;;;;;;;;;;;
2021/12/04 14:27:19;;;;;;;2.57;1.47;;;9.50;99.90;;;;;;3164689;26;20228;-90
2021/12/04 14:29:52;;;;;;;1.30;1.20;;;9.50;99.90;;;;;;4958367;28;20473;-90
2021/12/04 14:32:24;;;;;;;1.50;1.40;;;9.50;99.90;;;;;;4953685;28;20200;-89
2021/12/04 14:35:01;;;;;;;1.73;1.63;;;9.50;99.90;;;;;;4939398;28;20200;-90
2021/12/04 14:37:31;;;;;;;1.73;1.63;;;9.40;99.90;;;;;;5024693;28;20215;-89
2021/12/04 14:39:57;;;;;;;1.80;1.70;;;9.40;99.90;;;;;;4952652;28;20184;-89
2021/12/04 14:42:27;;;;;;;1.70;1.60;;;9.40;99.90;;;;;;4960463;28;20200;-89
2021/12/04 14:45:50;;;;;;;;;;;;;;;;;;;;;
2021/12/04 14:48:48;;;;;;;1.70;1.50;;;9.40;99.90;;;;;;4979110;28;20284;-90
2021/12/04 14:51:26;;;;;;;1.80;1.70;;;9.40;99.90;;;;;;4961153;28;20218;-90
2021/12/04 14:53:58;;;;;;;1.40;1.33;;;9.60;99.90;;;;;;4944164;28;20195;-91
2021/12/04 15:39:31;;;;;;;1.67;1.50;;;9.70;99.90;;;;;;4979003;28;20192;-89
2021/12/04 15:42:40;;;;;;;1.83;1.40;;;9.60;99.90;;;;;;4980357;28;20203;-90
2021/12/04 15:55:10;;;;;;;1.60;1.43;;;9.40;99.90;;;;;;4975184;28;20252;-90
2021/12/04 16:46:00;;;;;;;2.93;1.20;;;9.20;99.90;;;;;;5027300;28;20245;-89
2021/12/04 16:58:55;;;;;;;1.40;1.30;;;8.90;99.90;;;;;;5038882;28;20205;-89
2021/12/04 17:02:04;;;;;;;1.30;1.20;;;8.80;99.90;;;;;;5041228;28;20236;-89
2021/12/04 17:04:46;;;;;;;;;;;;;;;;;;;;;
2021/12/04 17:07:59;;;;;;;1.10;1.10;;;8.60;97.20;;;;;;4971427;28;20247;-90
2021/12/04 17:10:56;;;;;;;;;;;;;;;;;;;;;
2021/12/04 17:14:37;;;;;;;;;;;;;;;;;;;;;
2021/12/04 17:20:57;;;;;;;1.17;1.17;;;8.20;98.10;;;;;;4975582;28;20245;-88
2021/12/04 17:23:59;;;;;;;1.07;1.07;;;8.10;98.20;;;;;;4988958;28;20195;-89
2021/12/04 17:37:46;;;;;;;1.30;1.20;;;8.00;97.60;;;;;;4884721;29;20226;-88
2021/12/04 17:40:22;;;;;;;1.10;1.10;;;8.00;97.30;;;;;;4940419;29;20294;-89
2021/12/04 17:43:11;;;;;;;1.30;1.20;;;7.90;97.00;;;;;;4930283;28;20226;-88
2021/12/04 17:45:38;;;;;;;1.30;1.17;;;7.90;96.90;;;;;;4987960;28;20188;-88
2021/12/04 17:48:29;;;;;;;1.20;1.10;;;7.80;97.20;;;;;;5006619;28;20205;-89
2021/12/04 17:51:10;;;;;;;1.00;1.00;;;7.80;96.40;;;;;;4969746;28;20279;-87
2021/12/04 17:54:11;;;;;;;1.30;1.20;;;7.80;97.40;;;;;;4968879;28;20437;-88
2021/12/04 18:05:00;;;;;;;1.50;1.40;;;7.70;98.10;;;;;;4957212;28;20704;-90
2021/12/04 18:08:26;;;;;;;;;;;;;;;;;;;;;
2021/12/04 18:45:02;;;;;;;8.43;5.83;;;7.50;96.50;;;;;;4963383;28;20191;-86
2021/12/04 18:47:31;;;;;;;4.10;2.70;;;7.50;96.30;;;;;;4972476;28;20257;-85
2021/12/04 18:50:17;;;;;;;22.97;17.60;;;7.50;96.90;;;;;;5008022;28;20216;-86
2021/12/04 19:03:40;;;;;;;1.50;1.40;;;7.50;98.10;;;;;;5018549;28;20234;-86
2021/12/04 19:06:15;;;;;;;1.80;1.70;;;7.50;96.00;;;;;;4997849;28;20258;-86
2021/12/04 19:16:31;;;;;;;2.63;2.43;;;7.40;95.10;;;;;;5020122;28;20263;-86
2021/12/04 19:25:22;;;;;;;2.10;1.63;;;7.30;95.40;;;;;;4651805;26;20241;-86
2021/12/04 19:32:07;;;;;;;1.90;1.70;;;7.10;97.50;;;;;;4950174;28;20719;-86
2021/12/04 19:58:06;;;;;;;1.87;1.70;;;6.80;96.50;;;;;;4961393;28;20234;-86
2021/12/04 20:06:56;;;;;;;2.10;1.90;;;6.70;95.30;;;;;;4963485;28;20217;-84
2021/12/04 20:22:24;;;;;;;4.03;2.50;;;6.70;91.30;;;;;;4937639;28;20257;-85
2021/12/04 20:28:05;;;;;;;2.87;2.40;;;6.70;90.50;;;;;;4960905;28;20205;-85
2021/12/04 20:34:07;;;;;;;;;;;;;;;;;;;;;
2021/12/04 21:26:49;;;;;;;5.37;2.23;;;6.20;91.80;;;;;;4990148;28;20234;-84
2021/12/04 21:49:47;;;;;;;5.47;1.93;;;5.80;96.20;;;;;;1270324;26;20746;-85
2021/12/04 21:52:20;;;;;;;5.50;2.70;;;5.60;97.50;;;;;;5038677;28;20233;-84
2021/12/04 22:09:33;;;;;;;5.33;2.13;;;5.30;95.90;;;;;;5033435;28;20271;-86
2021/12/04 22:12:40;;;;;;;;;;;;;;;;;;;;;
2021/12/04 22:23:00;;;;;;;;;;;;;;;;;;;;;
